Time;durP1;ratioP1;P1;durP2;ratioP2;P2;SDS_P1;SDS_P2;PMS_P1;PMS_P2;Temp;Humidity;BMP_temperature;BMP_pressure;BME280_temperature;BME280_humidity;BME280_pressure;Samples;Min_cycle;Max_cycle;Signal;HPM_P1;HPM_P2
2021/09/17 00:00:39;;;;;;;77.77;22.70;;;;;;;;;;5074913;28;20973;-90
2021/09/17 00:03:07;;;;;;;79.63;25.23;;;;;;;;;;5092895;28;20453;-90
2021/09/17 00:05:35;;;;;;;80.13;23.23;;;;;;;;;;5084099;28;21054;-90
2021/09/17 00:08:02;;;;;;;74.80;11.87;;;;;;;;;;5073907;28;20471;-89
2021/09/17 00:10:30;;;;;;;76.37;10.97;;;;;;;;;;5062700;28;20481;-89
2021/09/17 00:12:57;;;;;;;76.80;11.47;;;;;;;;;;5062223;28;20464;-89
2021/09/17 00:15:24;;;;;;;77.07;11.57;;;;;;;;;;5064862;28;20814;-89
2021/09/17 00:17:51;;;;;;;76.90;11.13;;;;;;;;;;5070850;28;20470;-89
2021/09/17 00:20:19;;;;;;;80.50;14.60;;;;;;;;;;5073320;28;20442;-89
2021/09/17 00:22:48;;;;;;;76.20;12.57;;;;;;;;;;5064552;28;20444;-88
2021/09/17 00:25:15;;;;;;;76.07;12.20;;;;;;;;;;5064619;28;21022;-89
2021/09/17 00:27:42;;;;;;;76.23;11.97;;;;;;;;;;5057701;28;20530;-89
2021/09/17 00:30:10;;;;;;;78.67;12.47;;;;;;;;;;5035591;28;20494;-89
2021/09/17 00:32:37;;;;;;;76.97;12.67;;;;;;;;;;5053603;28;20451;-89
2021/09/17 00:35:04;;;;;;;77.40;12.77;;;;;;;;;;5064212;28;20459;-89
2021/09/17 00:37:32;;;;;;;82.90;27.20;;;;;;;;;;5064535;28;20853;-89
2021/09/17 00:40:00;;;;;;;93.30;39.37;;;;;;;;;;5078798;28;20998;-89
2021/09/17 00:42:27;;;;;;;99.70;48.40;;;;;;;;;;5072541;28;20453;-89
2021/09/17 00:44:54;;;;;;;105.13;60.37;;;;;;;;;;5072896;28;20450;-89
2021/09/17 00:47:21;;;;;;;103.57;57.67;;;;;;;;;;5073031;28;20469;-89
2021/09/17 00:49:49;;;;;;;103.73;60.50;;;;;;;;;;5057496;28;20486;-89
2021/09/17 00:52:16;;;;;;;84.90;26.60;;;;;;;;;;5053287;28;20453;-90
2021/09/17 00:54:43;;;;;;;84.40;16.17;;;;;;;;;;5060744;28;20461;-90
2021/09/17 00:57:12;;;;;;;87.10;20.23;;;;;;;;;;5066141;28;21018;-89
2021/09/17 00:59:39;;;;;;;82.27;16.63;;;;;;;;;;5073214;28;20442;-89
2021/09/17 01:02:06;;;;;;;84.10;15.83;;;;;;;;;;5065862;28;20454;-89
2021/09/17 01:04:33;;;;;;;85.00;18.20;;;;;;;;;;5072752;28;20451;-89
2021/09/17 01:07:00;;;;;;;87.70;21.17;;;;;;;;;;5071907;28;20469;-89
2021/09/17 01:09:27;;;;;;;86.13;17.07;;;;;;;;;;5072494;28;20477;-88
2021/09/17 01:11:55;;;;;;;86.70;19.70;;;;;;;;;;5071266;28;20450;-89
2021/09/17 01:14:23;;;;;;;85.97;20.10;;;;;;;;;;5072137;28;20447;-88
2021/09/17 01:16:50;;;;;;;83.77;23.30;;;;;;;;;;5071898;28;20482;-87
2021/09/17 01:19:18;;;;;;;82.60;16.27;;;;;;;;;;5055536;28;20822;-90
2021/09/17 01:21:46;;;;;;;82.67;16.00;;;;;;;;;;5069619;28;20452;-90
2021/09/17 01:24:13;;;;;;;83.07;15.53;;;;;;;;;;5067016;28;20467;-88
2021/09/17 01:26:40;;;;;;;83.07;15.70;;;;;;;;;;5051831;28;20479;-88
2021/09/17 01:29:07;;;;;;;83.40;15.40;;;;;;;;;;5054868;28;20455;-88
2021/09/17 01:31:34;;;;;;;83.50;14.83;;;;;;;;;;5053827;28;20453;-90
2021/09/17 01:34:06;;;;;;;84.80;15.40;;;;;;;;;;5052395;28;20436;-90
2021/09/17 01:36:33;;;;;;;84.10;15.13;;;;;;;;;;5052365;28;21048;-88
2021/09/17 01:39:02;;;;;;;84.30;15.93;;;;;;;;;;5060968;28;20448;-88
2021/09/17 01:41:29;;;;;;;85.33;15.97;;;;;;;;;;5052288;28;20451;-88
2021/09/17 01:43:56;;;;;;;86.00;16.43;;;;;;;;;;5052576;28;20449;-88
2021/09/17 01:46:23;;;;;;;84.83;16.13;;;;;;;;;;5051545;28;20834;-88
2021/09/17 01:48:50;;;;;;;85.50;16.70;;;;;;;;;;5070537;28;20450;-89
2021/09/17 01:51:17;;;;;;;85.03;16.17;;;;;;;;;;5072104;28;20482;-89
2021/09/17 01:53:44;;;;;;;88.07;18.63;;;;;;;;;;5068657;28;20451;-88
2021/09/17 01:56:16;;;;;;;86.67;17.07;;;;;;;;;;5071376;28;20548;-88
2021/09/17 01:58:43;;;;;;;86.87;17.80;;;;;;;;;;5073187;28;20461;-88
2021/09/17 02:01:11;;;;;;;85.17;17.43;;;;;;;;;;5095882;28;20510;-89
2021/09/17 02:03:38;;;;;;;88.20;19.07;;;;;;;;;;5074299;28;20493;-88
2021/09/17 02:06:05;;;;;;;85.93;19.23;;;;;;;;;;5068398;28;20451;-88
2021/09/17 02:08:32;;;;;;;88.33;20.87;;;;;;;;;;5069087;28;20461;-88
2021/09/17 02:10:59;;;;;;;88.93;21.60;;;;;;;;;;5059125;28;20492;-87
2021/09/17 02:13:28;;;;;;;91.40;23.60;;;;;;;;;;5051456;28;20452;-88
2021/09/17 02:15:55;;;;;;;97.87;28.57;;;;;;;;;;5071634;28;20459;-88
2021/09/17 02:18:23;;;;;;;97.50;31.00;;;;;;;;;;5070479;28;20481;-87
2021/09/17 02:20:50;;;;;;;99.90;38.70;;;;;;;;;;5060592;28;20453;-89
2021/09/17 02:23:17;;;;;;;87.23;19.07;;;;;;;;;;5070808;28;20455;-88
2021/09/17 02:25:44;;;;;;;93.27;24.13;;;;;;;;;;5055993;28;20452;-88
2021/09/17 02:28:11;;;;;;;1999.90;999.90;;;;;;;;;;5050896;28;20483;-88
2021/09/17 02:30:40;;;;;;;1999.90;999.90;;;;;;;;;;5065863;28;20492;-89
2021/09/17 02:33:07;;;;;;;1999.90;999.90;;;;;;;;;;5071169;28;20457;-90
2021/09/17 02:35:34;;;;;;;1999.90;999.90;;;;;;;;;;5057091;28;20460;-89
2021/09/17 02:38:01;;;;;;;1999.90;999.90;;;;;;;;;;5050620;28;20483;-90
2021/09/17 02:40:30;;;;;;;1999.90;999.90;;;;;;;;;;5051482;28;20447;-90
2021/09/17 02:42:57;;;;;;;1999.90;999.90;;;;;;;;;;5062121;28;20459;-88
2021/09/17 02:45:25;;;;;;;1999.90;999.90;;;;;;;;;;5051134;28;20459;-87
2021/09/17 02:47:53;;;;;;;1999.90;999.90;;;;;;;;;;5051261;28;20480;-88
2021/09/17 02:50:20;;;;;;;1999.90;999.90;;;;;;;;;;5055350;28;20489;-89
2021/09/17 02:52:47;;;;;;;1999.90;999.90;;;;;;;;;;5055489;28;20478;-87
2021/09/17 02:55:15;;;;;;;1999.90;999.90;;;;;;;;;;5055277;28;20462;-88
2021/09/17 02:57:42;;;;;;;1999.90;999.90;;;;;;;;;;5054791;28;20469;-90
2021/09/17 03:00:10;;;;;;;1999.90;999.90;;;;;;;;;;5062713;28;20448;-88
2021/09/17 03:02:37;;;;;;;25.20;0.60;;;;;;;;;;5074643;28;20838;-88
2021/09/17 03:05:06;;;;;;;31.70;0.70;;;;;;;;;;5075252;28;20966;-88
2021/09/17 03:07:33;;;;;;;32.50;0.70;;;;;;;;;;5065123;28;20483;-90
2021/09/17 03:10:00;;;;;;;34.63;0.70;;;;;;;;;;5066649;28;20476;-89
2021/09/17 03:12:27;;;;;;;34.83;0.70;;;;;;;;;;5066948;28;20476;-89
2021/09/17 03:14:55;;;;;;;34.70;0.70;;;;;;;;;;5061979;28;20455;-87
2021/09/17 03:17:22;;;;;;;34.80;0.70;;;;;;;;;;5055489;28;20478;-88
2021/09/17 03:19:49;;;;;;;32.87;0.70;;;;;;;;;;5066560;28;20453;-88
2021/09/17 03:22:18;;;;;;;33.00;0.70;;;;;;;;;;5067537;28;20459;-88
2021/09/17 03:24:45;;;;;;;33.10;0.70;;;;;;;;;;5065622;28;20455;-89
2021/09/17 03:27:12;;;;;;;33.10;0.70;;;;;;;;;;5073891;28;20470;-90
2021/09/17 03:29:39;;;;;;;31.57;0.70;;;;;;;;;;5075100;28;20478;-89
2021/09/17 03:32:07;;;;;;;15.55;0.60;;;;;;;;;;5075641;28;20446;-91
2021/09/17 03:34:35;;;;;;;15.93;0.60;;;;;;;;;;5076266;28;20446;-91
2021/09/17 03:37:02;;;;;;;17.40;0.60;;;;;;;;;;5074371;28;20509;-91
2021/09/17 03:39:31;;;;;;;23.33;0.70;;;;;;;;;;5076296;28;20454;-91
2021/09/17 03:41:58;;;;;;;21.43;0.60;;;;;;;;;;5075379;28;20532;-90
2021/09/17 03:44:25;;;;;;;29.20;0.70;;;;;;;;;;5073102;28;20458;-91
2021/09/17 03:46:53;;;;;;;39.60;0.80;;;;;;;;;;5081660;28;20521;-91
2021/09/17 03:49:20;;;;;;;51.87;1.60;;;;;;;;;;5088788;28;20948;-91
2021/09/17 03:51:48;;;;;;;55.17;2.17;;;;;;;;;;5079131;28;20485;-90
2021/09/17 03:54:15;;;;;;;60.57;3.10;;;;;;;;;;5070920;28;20462;-89
2021/09/17 03:56:43;;;;;;;62.87;3.43;;;;;;;;;;5058998;28;20493;-89
2021/09/17 03:59:10;;;;;;;64.60;4.73;;;;;;;;;;5078871;28;20429;-87
2021/09/17 04:01:37;;;;;;;59.67;2.90;;;;;;;;;;5071783;28;20450;-88
2021/09/17 04:04:05;;;;;;;59.77;3.00;;;;;;;;;;5074389;28;20451;-88
2021/09/17 04:06:32;;;;;;;61.10;3.70;;;;;;;;;;5073073;28;20468;-87
2021/09/17 04:08:59;;;;;;;62.13;4.20;;;;;;;;;;5076573;28;20475;-89
2021/09/17 04:11:26;;;;;;;61.73;4.40;;;;;;;;;;5057182;28;20503;-87
2021/09/17 04:13:55;;;;;;;62.00;4.77;;;;;;;;;;5072009;28;20454;-89
2021/09/17 04:16:22;;;;;;;62.27;5.00;;;;;;;;;;5074403;28;20452;-89
2021/09/17 04:18:50;;;;;;;62.90;5.10;;;;;;;;;;5075666;28;20528;-88
2021/09/17 04:21:17;;;;;;;14.80;0.60;;;;;;;;;;5074825;28;20529;-87
2021/09/17 04:23:44;;;;;;;21.43;0.60;;;;;;;;;;5076417;28;20462;-87
2021/09/17 04:26:11;;;;;;;25.53;0.63;;;;;;;;;;5075399;28;20451;-89
2021/09/17 04:28:38;;;;;;;31.93;0.70;;;;;;;;;;5077309;28;20461;-87
2021/09/17 04:31:07;;;;;;;23.30;0.60;;;;;;;;;;5076827;28;20479;-87
2021/09/17 04:33:34;;;;;;;26.20;0.70;;;;;;;;;;5078170;28;20443;-83
2021/09/17 04:36:01;;;;;;;25.97;0.70;;;;;;;;;;5072664;28;20566;-87
2021/09/17 04:38:28;;;;;;;29.40;0.70;;;;;;;;;;5071029;28;20493;-84
2021/09/17 04:40:55;;;;;;;32.20;0.70;;;;;;;;;;5074052;28;20481;-84
2021/09/17 04:43:22;;;;;;;36.00;0.70;;;;;;;;;;5075772;28;20449;-87
2021/09/17 04:45:49;;;;;;;39.47;0.70;;;;;;;;;;5066192;28;20470;-88
2021/09/17 04:48:18;;;;;;;40.80;0.80;;;;;;;;;;5061380;28;20851;-88
2021/09/17 04:50:46;;;;;;;44.23;0.90;;;;;;;;;;5070272;28;20507;-88
2021/09/17 04:53:14;;;;;;;46.80;1.00;;;;;;;;;;5080955;28;20457;-88
2021/09/17 04:55:41;;;;;;;49.40;1.30;;;;;;;;;;5073174;28;20534;-88
2021/09/17 04:58:09;;;;;;;50.27;1.40;;;;;;;;;;5072167;28;20469;-88
2021/09/17 05:00:37;;;;;;;51.30;1.70;;;;;;;;;;5073757;28;20456;-88
2021/09/17 05:03:04;;;;;;;51.47;1.80;;;;;;;;;;5074848;28;20976;-88
2021/09/17 05:05:33;;;;;;;51.17;1.70;;;;;;;;;;5082105;28;20451;-88
2021/09/17 05:08:00;;;;;;;51.90;1.80;;;;;;;;;;5086408;28;20489;-88
2021/09/17 05:10:28;;;;;;;48.33;1.20;;;;;;;;;;5073402;28;20556;-88
2021/09/17 05:12:55;;;;;;;51.00;1.60;;;;;;;;;;5066312;28;20538;-87
2021/09/17 05:15:22;;;;;;;51.37;1.70;;;;;;;;;;5066395;28;20537;-89
2021/09/17 05:17:49;;;;;;;51.27;1.67;;;;;;;;;;5065005;28;20477;-88
2021/09/17 05:20:17;;;;;;;50.50;1.60;;;;;;;;;;5084540;28;20507;-88
2021/09/17 05:22:46;;;;;;;52.80;2.00;;;;;;;;;;5073485;28;20455;-87
2021/09/17 05:25:13;;;;;;;30.90;0.70;;;;;;;;;;5074070;28;20458;-87
2021/09/17 05:27:40;;;;;;;42.67;0.80;;;;;;;;;;5063952;28;20478;-87
2021/09/17 05:30:08;;;;;;;45.67;0.93;;;;;;;;;;5060892;28;20458;-87
2021/09/17 05:32:35;;;;;;;46.97;1.07;;;;;;;;;;5056399;28;21280;-87
2021/09/17 05:35:03;;;;;;;48.10;1.30;;;;;;;;;;5056596;28;20449;-87
2021/09/17 05:37:30;;;;;;;47.60;1.40;;;;;;;;;;5053131;28;20483;-88
2021/09/17 05:39:59;;;;;;;46.80;1.43;;;;;;;;;;5054287;28;20457;-86
2021/09/17 05:42:26;;;;;;;42.77;0.90;;;;;;;;;;5054009;28;20544;-88
2021/09/17 05:44:53;;;;;;;43.40;1.00;;;;;;;;;;5056434;28;20554;-87
2021/09/17 05:47:20;;;;;;;44.00;1.43;;;;;;;;;;5063822;28;20476;-88
2021/09/17 05:49:47;;;;;;;43.97;1.50;;;;;;;;;;5068312;28;20446;-87
2021/09/17 05:52:15;;;;;;;44.20;1.73;;;;;;;;;;5076488;28;21037;-88
2021/09/17 05:54:42;;;;;;;44.13;1.77;;;;;;;;;;5084691;28;20427;-88
2021/09/17 05:57:10;;;;;;;44.03;1.90;;;;;;;;;;5091303;28;20508;-86
2021/09/17 05:59:38;;;;;;;43.63;1.90;;;;;;;;;;5073615;28;20448;-87
2021/09/17 06:02:06;;;;;;;44.37;2.63;;;;;;;;;;5072216;28;20448;-87
2021/09/17 06:04:34;;;;;;;44.20;2.43;;;;;;;;;;5087695;28;20459;-86
2021/09/17 06:07:02;;;;;;;44.40;2.50;;;;;;;;;;5069072;28;20469;-86
2021/09/17 06:09:30;;;;;;;44.40;2.63;;;;;;;;;;5074807;28;21013;-89
2021/09/17 06:11:57;;;;;;;44.30;2.40;;;;;;;;;;5071476;28;21036;-87
2021/09/17 06:14:25;;;;;;;44.37;2.30;;;;;;;;;;5077603;28;20532;-89
2021/09/17 06:16:52;;;;;;;44.70;2.60;;;;;;;;;;5077633;28;20466;-88
2021/09/17 06:19:19;;;;;;;17.10;0.60;;;;;;;;;;5078053;28;20456;-88
2021/09/17 06:21:47;;;;;;;21.70;0.60;;;;;;;;;;5075664;28;20454;-87
2021/09/17 06:24:14;;;;;;;24.00;0.60;;;;;;;;;;5077629;28;20459;-87
2021/09/17 06:26:41;;;;;;;25.50;0.70;;;;;;;;;;5075820;28;20487;-88
2021/09/17 06:29:09;;;;;;;26.23;0.70;;;;;;;;;;5077583;28;20526;-89
2021/09/17 06:31:37;;;;;;;30.37;0.70;;;;;;;;;;5073997;28;20490;-88
2021/09/17 06:34:04;;;;;;;32.83;0.70;;;;;;;;;;5078719;28;20449;-87
2021/09/17 06:36:32;;;;;;;33.93;0.70;;;;;;;;;;5079033;28;20483;-86
2021/09/17 06:39:00;;;;;;;35.93;0.70;;;;;;;;;;5076106;28;20472;-87
2021/09/17 06:41:28;;;;;;;37.00;0.70;;;;;;;;;;5052669;28;20452;-87
2021/09/17 06:43:55;;;;;;;37.93;0.70;;;;;;;;;;5063884;28;20501;-86
2021/09/17 06:46:22;;;;;;;38.13;0.70;;;;;;;;;;5072682;28;20451;-86
2021/09/17 06:48:51;;;;;;;38.20;0.70;;;;;;;;;;5079160;28;20517;-86
2021/09/17 06:51:18;;;;;;;39.30;0.80;;;;;;;;;;5074508;28;20847;-84
2021/09/17 06:53:45;;;;;;;39.70;0.80;;;;;;;;;;5077432;28;20458;-84
2021/09/17 06:56:13;;;;;;;40.93;0.80;;;;;;;;;;5071161;28;20543;-86
2021/09/17 06:58:40;;;;;;;41.63;0.90;;;;;;;;;;5077178;28;20450;-87
2021/09/17 07:01:07;;;;;;;41.70;0.90;;;;;;;;;;5078335;28;20512;-84
2021/09/17 07:03:34;;;;;;;41.90;1.00;;;;;;;;;;5073961;28;20447;-87
2021/09/17 07:06:03;;;;;;;42.63;0.97;;;;;;;;;;5075350;28;20453;-87
2021/09/17 07:08:30;;;;;;;43.00;0.93;;;;;;;;;;5074924;28;20916;-85
2021/09/17 07:10:57;;;;;;;41.70;1.30;;;;;;;;;;5073770;28;20478;-86
2021/09/17 07:13:24;;;;;;;43.10;1.53;;;;;;;;;;5068166;28;20454;-87
2021/09/17 07:15:51;;;;;;;43.50;1.60;;;;;;;;;;5074302;28;21209;-87
2021/09/17 07:18:19;;;;;;;43.60;1.63;;;;;;;;;;5070731;28;20551;-88
2021/09/17 07:20:47;;;;;;;44.03;1.83;;;;;;;;;;5078125;28;20448;-83
2021/09/17 07:23:15;;;;;;;44.07;1.80;;;;;;;;;;5079232;28;20446;-84
2021/09/17 07:25:43;;;;;;;26.87;0.67;;;;;;;;;;5080331;28;20529;-83
2021/09/17 07:28:10;;;;;;;28.57;0.70;;;;;;;;;;5075877;28;20535;-85
2021/09/17 07:30:38;;;;;;;31.83;0.70;;;;;;;;;;5068769;28;20466;-88
2021/09/17 07:33:05;;;;;;;36.17;0.70;;;;;;;;;;5077227;28;20571;-85
2021/09/17 07:35:33;;;;;;;37.73;0.70;;;;;;;;;;5079289;28;20440;-85
2021/09/17 07:38:00;;;;;;;38.33;0.70;;;;;;;;;;5073262;28;20478;-88
2021/09/17 07:40:29;;;;;;;38.13;0.70;;;;;;;;;;5086584;28;20457;-84
2021/09/17 07:42:57;;;;;;;38.37;0.70;;;;;;;;;;5088031;28;20508;-89
2021/09/17 07:45:25;;;;;;;38.17;0.73;;;;;;;;;;5090606;28;20479;-87
2021/09/17 07:47:52;;;;;;;38.13;0.70;;;;;;;;;;5094524;28;20830;-87
2021/09/17 07:50:20;;;;;;;38.17;0.70;;;;;;;;;;5089571;28;20453;-87
2021/09/17 07:52:47;;;;;;;38.07;0.70;;;;;;;;;;5096971;28;20483;-89
2021/09/17 07:55:14;;;;;;;38.13;0.70;;;;;;;;;;5097592;28;20537;-86
2021/09/17 07:57:43;;;;;;;37.77;0.73;;;;;;;;;;5091033;28;20548;-85
2021/09/17 08:00:11;;;;;;;38.37;0.80;;;;;;;;;;5092874;28;20458;-87
2021/09/17 08:02:39;;;;;;;38.80;0.80;;;;;;;;;;5097213;28;20636;-86
2021/09/17 08:05:06;;;;;;;38.97;0.80;;;;;;;;;;5100769;28;20450;-88
2021/09/17 08:07:33;;;;;;;39.33;0.80;;;;;;;;;;5095143;28;20465;-86
2021/09/17 08:10:01;;;;;;;39.67;0.80;;;;;;;;;;5090881;28;20537;-85
2021/09/17 08:12:28;;;;;;;39.63;0.80;;;;;;;;;;5087144;28;20490;-84
2021/09/17 08:14:56;;;;;;;39.87;0.80;;;;;;;;;;5081784;28;20458;-86
2021/09/17 08:17:24;;;;;;;39.83;0.80;;;;;;;;;;5082489;28;21011;-85
2021/09/17 08:19:51;;;;;;;40.57;0.80;;;;;;;;;;5092211;28;20971;-86
2021/09/17 08:22:18;;;;;;;40.80;0.90;;;;;;;;;;5078345;28;21357;-85
2021/09/17 08:24:45;;;;;;;41.07;0.80;;;;;;;;;;5080769;28;20456;-85
2021/09/17 08:27:12;;;;;;;41.17;0.90;;;;;;;;;;5083725;28;20467;-86
2021/09/17 08:29:39;;;;;;;41.43;0.90;;;;;;;;;;5091214;28;20492;-85
2021/09/17 08:32:09;;;;;;;41.07;0.80;;;;;;;;;;5086309;28;20495;-86
2021/09/17 08:34:36;;;;;;;41.43;0.90;;;;;;;;;;5089125;28;20546;-86
2021/09/17 08:37:07;;;;;;;41.27;0.90;;;;;;;;;;5089859;28;20488;-85
2021/09/17 08:39:36;;;;;;;36.17;0.70;;;;;;;;;;5065940;28;20452;-85
2021/09/17 08:42:04;;;;;;;35.83;0.70;;;;;;;;;;5089442;28;20447;-86
2021/09/17 08:44:32;;;;;;;35.97;0.70;;;;;;;;;;5077023;28;20453;-85
2021/09/17 08:46:59;;;;;;;36.00;0.70;;;;;;;;;;5074806;28;20462;-87
2021/09/17 08:49:28;;;;;;;36.83;0.70;;;;;;;;;;5079641;28;20456;-83
2021/09/17 08:51:55;;;;;;;35.83;0.70;;;;;;;;;;5081215;28;20493;-83
2021/09/17 08:54:22;;;;;;;36.93;0.70;;;;;;;;;;5079885;28;20545;-83
2021/09/17 08:56:49;;;;;;;37.17;0.70;;;;;;;;;;5075538;28;20475;-85
2021/09/17 08:59:16;;;;;;;36.53;0.70;;;;;;;;;;5079901;28;20461;-82
2021/09/17 09:01:43;;;;;;;37.17;0.70;;;;;;;;;;5077288;28;20455;-86
2021/09/17 09:04:12;;;;;;;37.03;0.70;;;;;;;;;;5075495;28;20449;-86
2021/09/17 09:06:42;;;;;;;37.07;0.70;;;;;;;;;;5062624;28;20471;-87
2021/09/17 09:09:15;;;;;;;36.93;0.70;;;;;;;;;;5075342;28;20478;-84
2021/09/17 09:11:42;;;;;;;37.27;0.70;;;;;;;;;;5074231;28;20994;-85
2021/09/17 09:14:10;;;;;;;37.37;0.70;;;;;;;;;;5073259;28;20451;-86
2021/09/17 09:16:38;;;;;;;37.47;0.70;;;;;;;;;;5072768;28;20479;-85
2021/09/17 09:19:18;;;;;;;36.93;0.70;;;;;;;;;;5073652;28;20462;-86
2021/09/17 09:21:47;;;;;;;37.23;0.70;;;;;;;;;;5071973;28;20446;-84
2021/09/17 09:24:15;;;;;;;37.50;0.70;;;;;;;;;;5072646;28;20454;-86
2021/09/17 09:26:44;;;;;;;37.43;0.70;;;;;;;;;;5052072;28;20476;-86
2021/09/17 09:29:25;;;;;;;37.63;0.70;;;;;;;;;;5052285;28;20514;-87
2021/09/17 09:31:53;;;;;;;37.33;0.70;;;;;;;;;;5053093;28;20493;-86
2021/09/17 09:34:23;;;;;;;37.17;0.70;;;;;;;;;;5053619;28;20454;-84
2021/09/17 09:37:03;;;;;;;37.23;0.70;;;;;;;;;;5074079;28;20484;-89
2021/09/17 09:39:39;;;;;;;37.37;0.70;;;;;;;;;;5073167;28;20664;-85
2021/09/17 09:42:08;;;;;;;37.43;0.70;;;;;;;;;;5074306;28;20459;-84
2021/09/17 09:44:35;;;;;;;37.33;0.70;;;;;;;;;;5061494;28;20447;-88
2021/09/17 09:47:03;;;;;;;35.20;0.70;;;;;;;;;;5076097;28;20546;-85
2021/09/17 09:49:30;;;;;;;36.47;0.70;;;;;;;;;;5088383;28;20447;-90
2021/09/17 09:51:59;;;;;;;37.23;0.70;;;;;;;;;;5077580;28;20542;-88
2021/09/17 09:54:27;;;;;;;37.87;0.70;;;;;;;;;;5053851;28;20456;-85
2021/09/17 09:56:55;;;;;;;37.97;0.70;;;;;;;;;;5052847;28;20482;-87
2021/09/17 09:59:24;;;;;;;30.70;0.70;;;;;;;;;;5062674;28;20451;-86
2021/09/17 10:01:51;;;;;;;36.60;0.70;;;;;;;;;;5054490;28;20444;-85
2021/09/17 10:04:18;;;;;;;37.77;0.70;;;;;;;;;;5052932;28;20459;-85
2021/09/17 10:06:45;;;;;;;38.07;0.70;;;;;;;;;;5060260;28;20481;-86
2021/09/17 10:09:14;;;;;;;40.27;0.70;;;;;;;;;;5072451;28;20451;-86
2021/09/17 10:11:42;;;;;;;40.67;0.70;;;;;;;;;;5070283;28;20463;-86
2021/09/17 10:14:11;;;;;;;40.57;0.70;;;;;;;;;;5072010;28;20877;-86
2021/09/17 10:16:39;;;;;;;40.50;0.70;;;;;;;;;;5074486;28;20463;-87
2021/09/17 10:19:06;;;;;;;39.87;0.70;;;;;;;;;;5076277;28;20969;-85
2021/09/17 10:21:52;;;;;;;40.37;0.70;;;;;;;;;;5076301;28;20447;-86
2021/09/17 10:24:39;;;;;;;40.73;0.70;;;;;;;;;;5069384;28;20522;-85
2021/09/17 10:27:07;;;;;;;40.63;0.70;;;;;;;;;;5063493;28;20473;-86
2021/09/17 10:29:35;;;;;;;39.10;0.70;;;;;;;;;;5071623;28;20561;-84
2021/09/17 10:32:03;;;;;;;40.33;0.70;;;;;;;;;;5055594;28;20482;-85
2021/09/17 10:34:31;;;;;;;40.27;0.70;;;;;;;;;;5063675;28;20829;-86
2021/09/17 10:36:58;;;;;;;40.43;0.70;;;;;;;;;;5071986;28;20483;-86
2021/09/17 10:39:26;;;;;;;40.27;0.70;;;;;;;;;;5072806;28;20977;-86
2021/09/17 10:42:08;;;;;;;38.90;0.70;;;;;;;;;;5074098;28;20451;-86
2021/09/17 10:44:50;;;;;;;40.30;0.70;;;;;;;;;;5071218;28;20447;-87
2021/09/17 10:47:32;;;;;;;40.73;0.70;;;;;;;;;;5070818;28;20454;-85
2021/09/17 10:50:02;;;;;;;40.70;0.70;;;;;;;;;;5069452;28;20455;-86
2021/09/17 10:52:40;;;;;;;40.50;0.70;;;;;;;;;;5072765;28;20577;-86
2021/09/17 10:55:07;;;;;;;40.67;0.70;;;;;;;;;;5076301;28;20448;-87
2021/09/17 10:57:56;;;;;;;40.17;0.70;;;;;;;;;;5076659;28;20614;-85
2021/09/17 11:00:38;;;;;;;40.37;0.70;;;;;;;;;;5072340;28;20458;-85
2021/09/17 11:03:05;;;;;;;40.30;0.70;;;;;;;;;;5081290;28;20438;-86
2021/09/17 11:05:33;;;;;;;40.37;0.70;;;;;;;;;;5074071;28;20878;-85
2021/09/17 11:08:00;;;;;;;40.40;0.70;;;;;;;;;;5073220;28;20485;-85
2021/09/17 11:10:29;;;;;;;40.27;0.70;;;;;;;;;;5076158;28;20449;-87
2021/09/17 11:13:08;;;;;;;40.27;0.70;;;;;;;;;;5077059;28;20586;-85
2021/09/17 11:15:35;;;;;;;40.10;0.70;;;;;;;;;;5076814;28;20457;-85
2021/09/17 11:18:08;;;;;;;39.37;0.70;;;;;;;;;;5079429;28;20999;-85
2021/09/17 11:20:35;;;;;;;40.40;0.70;;;;;;;;;;5082340;28;20504;-84
2021/09/17 11:23:03;;;;;;;39.67;0.70;;;;;;;;;;5077828;28;20450;-84
2021/09/17 11:25:32;;;;;;;39.17;0.70;;;;;;;;;;5081322;28;20947;-85
2021/09/17 11:27:59;;;;;;;39.27;0.70;;;;;;;;;;5081509;28;20476;-83
2021/09/17 11:30:28;;;;;;;39.67;0.70;;;;;;;;;;5082702;28;20461;-85
2021/09/17 11:32:55;;;;;;;39.87;0.70;;;;;;;;;;5082369;28;20486;-83
2021/09/17 11:35:23;;;;;;;39.77;0.70;;;;;;;;;;5085234;28;20458;-85
2021/09/17 11:37:51;;;;;;;39.47;0.70;;;;;;;;;;5092301;28;20479;-84
2021/09/17 11:40:18;;;;;;;5.67;0.50;;;;;;;;;;5093228;28;20488;-84
2021/09/17 11:42:45;;;;;;;7.63;0.60;;;;;;;;;;5072149;28;20932;-86
2021/09/17 11:45:14;;;;;;;10.40;0.60;;;;;;;;;;5061732;28;20479;-84
2021/09/17 11:47:45;;;;;;;12.80;0.60;;;;;;;;;;5076284;28;20586;-83
2021/09/17 11:50:14;;;;;;;14.97;0.60;;;;;;;;;;5081369;28;20447;-86
2021/09/17 11:52:41;;;;;;;14.13;0.60;;;;;;;;;;5081047;28;20493;-82
2021/09/17 11:55:11;;;;;;;25.30;0.60;;;;;;;;;;5088697;28;20469;-81
2021/09/17 11:57:40;;;;;;;20.63;0.60;;;;;;;;;;5070607;28;20505;-84
2021/09/17 12:00:08;;;;;;;8.67;0.60;;;;;;;;;;5076215;28;20460;-82
2021/09/17 12:02:35;;;;;;;12.87;0.60;;;;;;;;;;5073434;28;20867;-84
2021/09/17 12:05:04;;;;;;;6.30;0.60;;;;;;;;;;5082622;28;20443;-84
2021/09/17 12:07:32;;;;;;;1999.90;999.90;;;;;;;;;;5072611;28;20455;-83
2021/09/17 12:09:59;;;;;;;1999.90;999.90;;;;;;;;;;5074661;28;20454;-84
2021/09/17 12:12:33;;;;;;;1999.90;999.90;;;;;;;;;;5071873;28;20457;-83
2021/09/17 12:15:00;;;;;;;54.87;8.87;;;;;;;;;;5080644;28;20453;-83
2021/09/17 12:17:28;;;;;;;60.77;12.57;;;;;;;;;;5069735;28;20493;-84
2021/09/17 12:19:56;;;;;;;71.47;24.33;;;;;;;;;;5088428;28;20469;-83
2021/09/17 12:22:35;;;;;;;1999.90;999.90;;;;;;;;;;5076276;28;20522;-82
2021/09/17 12:25:10;;;;;;;1999.90;999.90;;;;;;;;;;5073054;28;20435;-84
2021/09/17 12:27:38;;;;;;;1999.90;999.90;;;;;;;;;;5072540;28;20469;-83
2021/09/17 12:30:06;;;;;;;1999.90;999.90;;;;;;;;;;5066771;28;20459;-83
2021/09/17 12:32:33;;;;;;;1999.90;999.90;;;;;;;;;;5052937;28;20466;-83
2021/09/17 12:35:11;;;;;;;1999.90;999.90;;;;;;;;;;5060870;28;20450;-84
2021/09/17 12:37:41;;;;;;;1999.90;999.90;;;;;;;;;;5071888;28;20467;-81
2021/09/17 12:40:16;;;;;;;1999.90;999.90;;;;;;;;;;5061280;28;20547;-83
2021/09/17 12:42:43;;;;;;;518.17;200.10;;;;;;;;;;5071099;28;20457;-88
2021/09/17 12:45:11;;;;;;;1999.90;999.90;;;;;;;;;;5098602;28;20938;-83
2021/09/17 12:47:38;;;;;;;1999.90;999.90;;;;;;;;;;5096085;28;20985;-85
2021/09/17 12:50:07;;;;;;;1999.90;999.90;;;;;;;;;;5083447;28;20447;-85
2021/09/17 12:52:37;;;;;;;984.47;911.33;;;;;;;;;;5076738;28;20451;-84
2021/09/17 12:55:21;;;;;;;125.37;105.13;;;;;;;;;;5077631;28;20454;-83
2021/09/17 12:58:01;;;;;;;87.55;45.63;;;;;;;;;;5075640;28;20949;-86
2021/09/17 13:00:29;;;;;;;88.93;44.17;;;;;;;;;;5074074;28;20207;-87
2021/09/17 13:02:56;;;;;;;81.30;34.40;;;;;;;;;;5075083;28;20453;-86
2021/09/17 13:05:23;;;;;;;83.10;33.20;;;;;;;;;;5074272;28;20446;-86
2021/09/17 13:07:50;;;;;;;77.43;19.17;;;;;;;;;;5078988;28;20475;-86
2021/09/17 13:10:19;;;;;;;81.70;16.63;;;;;;;;;;5106044;22;20497;-79
2021/09/17 13:12:46;;;;;;;76.83;12.67;;;;;;;;;;5108151;28;20464;-79
2021/09/17 13:15:13;;;;;;;81.67;14.17;;;;;;;;;;5092901;28;20438;-82
2021/09/17 13:17:40;;;;;;;110.20;27.97;;;;;;;;;;5089859;28;20446;-81
2021/09/17 13:20:09;;;;;;;101.30;30.00;;;;;;;;;;5089677;28;20466;-81
2021/09/17 13:22:36;;;;;;;1999.90;999.90;;;;;;;;;;5075561;28;20443;-80
2021/09/17 13:25:04;;;;;;;217.57;196.77;;;;;;;;;;5072083;28;20434;-82
2021/09/17 13:27:33;;;;;;;1999.90;999.90;;;;;;;;;;5064996;28;20440;-84
2021/09/17 13:30:00;;;;;;;1999.90;999.90;;;;;;;;;;5064594;28;20513;-82
2021/09/17 13:32:27;;;;;;;24.17;11.00;;;;;;;;;;5072194;28;20451;-82
2021/09/17 13:34:55;;;;;;;61.30;28.40;;;;;;;;;;5066010;28;20867;-83
2021/09/17 13:37:23;;;;;;;49.57;11.10;;;;;;;;;;5070644;28;20475;-83
2021/09/17 13:39:50;;;;;;;55.70;11.50;;;;;;;;;;5075390;28;20475;-82
2021/09/17 13:42:18;;;;;;;51.80;11.20;;;;;;;;;;5073374;28;20975;-83
2021/09/17 13:44:46;;;;;;;49.63;11.23;;;;;;;;;;5070606;28;20450;-82
2021/09/17 13:47:14;;;;;;;53.73;12.57;;;;;;;;;;5075295;28;20955;-82
2021/09/17 13:49:41;;;;;;;52.10;12.10;;;;;;;;;;5071631;28;20471;-83
2021/09/17 13:52:08;;;;;;;55.33;14.57;;;;;;;;;;5073716;28;20447;-82
2021/09/17 13:54:36;;;;;;;52.80;12.87;;;;;;;;;;5056878;28;20483;-82
2021/09/17 13:57:04;;;;;;;58.87;14.07;;;;;;;;;;5054063;28;20444;-82
2021/09/17 13:59:32;;;;;;;50.07;10.50;;;;;;;;;;5061682;28;20478;-82
2021/09/17 14:02:00;;;;;;;48.53;11.20;;;;;;;;;;5074445;28;20969;-81
2021/09/17 14:04:29;;;;;;;54.27;13.20;;;;;;;;;;5074182;28;20958;-82
2021/09/17 14:06:56;;;;;;;50.33;12.63;;;;;;;;;;5073596;28;20453;-82
2021/09/17 14:09:23;;;;;;;52.17;12.50;;;;;;;;;;5069598;28;20477;-82
2021/09/17 14:11:51;;;;;;;50.60;11.93;;;;;;;;;;5073943;28;20454;-83
2021/09/17 14:14:18;;;;;;;47.87;11.10;;;;;;;;;;5073317;28;21018;-82
2021/09/17 14:16:45;;;;;;;50.60;12.77;;;;;;;;;;5073211;28;20443;-81
2021/09/17 14:19:15;;;;;;;52.90;14.03;;;;;;;;;;5074085;28;20447;-82
2021/09/17 14:21:43;;;;;;;52.30;14.70;;;;;;;;;;5074669;28;20454;-82
2021/09/17 14:24:10;;;;;;;48.70;13.50;;;;;;;;;;5074145;28;20453;-82
2021/09/17 14:26:37;;;;;;;47.57;11.53;;;;;;;;;;5079190;28;20466;-82